Time;durP1;ratioP1;P1;durP2;ratioP2;P2;SDS_P1;SDS_P2;PMS_P1;PMS_P2;Temp;Humidity;BMP_temperature;BMP_pressure;BME280_temperature;BME280_humidity;BME280_pressure;Samples;Min_cycle;Max_cycle;Signal;HPM_P1;HPM_P2
2023/12/08 00:00:54;;;;;;;167.53;62.87;;;;;;;;;;4984968;28;20197;-42
2023/12/08 00:03:20;;;;;;;128.30;52.53;;;;;;;;;;4988182;28;20430;-42
2023/12/08 00:05:47;;;;;;;129.63;53.03;;;;;;;;;;4986442;28;20460;-42
2023/12/08 00:08:12;;;;;;;139.93;52.22;;;;;;;;;;4988595;28;20650;-42
2023/12/08 00:10:38;;;;;;;138.17;53.07;;;;;;;;;;4984898;28;20208;-42
2023/12/08 00:13:04;;;;;;;137.90;52.40;;;;;;;;;;4980759;28;20416;-42
2023/12/08 00:15:31;;;;;;;127.13;52.07;;;;;;;;;;4987895;28;20498;-42
2023/12/08 00:17:57;;;;;;;166.25;63.85;;;;;;;;;;4985468;28;20913;-42
2023/12/08 00:20:23;;;;;;;129.23;51.58;;;;;;;;;;4987450;28;20565;-42
2023/12/08 00:22:50;;;;;;;128.93;52.67;;;;;;;;;;4980700;28;20193;-43
2023/12/08 00:25:16;;;;;;;131.75;51.90;;;;;;;;;;4987118;28;20241;-42
2023/12/08 00:27:42;;;;;;;136.70;52.55;;;;;;;;;;4983950;28;20185;-43
2023/12/08 00:30:08;;;;;;;138.50;55.90;;;;;;;;;;4985032;28;20205;-42
2023/12/08 00:32:34;;;;;;;139.40;54.95;;;;;;;;;;4987623;28;20238;-43
2023/12/08 00:35:00;;;;;;;135.97;54.37;;;;;;;;;;4983697;28;20268;-42
2023/12/08 00:37:26;;;;;;;138.85;54.33;;;;;;;;;;4985947;28;20400;-42
2023/12/08 00:39:52;;;;;;;138.47;56.57;;;;;;;;;;4983680;28;20848;-42
2023/12/08 00:42:18;;;;;;;139.20;54.03;;;;;;;;;;4984807;28;20827;-42
2023/12/08 00:44:44;;;;;;;130.50;51.70;;;;;;;;;;4982941;28;20226;-42
2023/12/08 00:47:10;;;;;;;130.37;53.87;;;;;;;;;;4984707;28;20412;-42
2023/12/08 00:49:37;;;;;;;135.80;54.53;;;;;;;;;;4986618;28;20431;-42
2023/12/08 00:52:03;;;;;;;165.45;61.15;;;;;;;;;;4982544;28;20201;-42
2023/12/08 00:54:29;;;;;;;133.43;52.17;;;;;;;;;;4984074;28;20185;-42
2023/12/08 00:56:55;;;;;;;136.70;53.67;;;;;;;;;;4984015;28;20173;-42
2023/12/08 00:59:21;;;;;;;138.07;54.30;;;;;;;;;;4983489;28;20424;-42
2023/12/08 01:01:47;;;;;;;177.27;64.77;;;;;;;;;;4983651;28;20435;-42
2023/12/08 01:04:13;;;;;;;132.80;53.80;;;;;;;;;;4988870;28;20413;-43
2023/12/08 01:06:39;;;;;;;130.13;52.57;;;;;;;;;;4985412;28;20558;-42
2023/12/08 01:09:05;;;;;;;132.60;52.50;;;;;;;;;;4980296;28;20992;-42
2023/12/08 01:11:32;;;;;;;129.47;50.27;;;;;;;;;;4982041;28;20823;-42
2023/12/08 01:13:58;;;;;;;177.38;64.20;;;;;;;;;;4984081;28;20905;-42
2023/12/08 01:16:24;;;;;;;170.90;63.93;;;;;;;;;;4986690;28;20230;-42
2023/12/08 01:18:50;;;;;;;172.57;64.40;;;;;;;;;;4983877;28;20415;-42
2023/12/08 01:21:15;;;;;;;168.98;63.45;;;;;;;;;;4986880;28;20421;-42
2023/12/08 01:23:41;;;;;;;131.47;51.83;;;;;;;;;;4984039;28;20227;-42
2023/12/08 01:26:11;;;;;;;169.77;63.53;;;;;;;;;;4978943;28;20461;-42
2023/12/08 01:28:37;;;;;;;173.07;64.57;;;;;;;;;;4986226;28;20423;-42
2023/12/08 01:31:03;;;;;;;170.90;63.67;;;;;;;;;;4983691;28;20205;-42
2023/12/08 01:33:29;;;;;;;171.02;62.25;;;;;;;;;;4985171;28;20400;-42
2023/12/08 01:35:55;;;;;;;173.52;64.55;;;;;;;;;;4983401;28;20174;-42
2023/12/08 01:38:21;;;;;;;175.93;65.70;;;;;;;;;;4984253;28;20182;-42
2023/12/08 01:40:47;;;;;;;174.75;63.67;;;;;;;;;;4982811;28;20428;-42
2023/12/08 01:43:13;;;;;;;171.15;62.10;;;;;;;;;;4983384;28;20642;-42
2023/12/08 01:45:40;;;;;;;171.25;62.90;;;;;;;;;;4986536;28;20741;-43
2023/12/08 01:48:07;;;;;;;167.40;61.20;;;;;;;;;;4981659;28;20269;-43
2023/12/08 01:50:33;;;;;;;165.88;60.15;;;;;;;;;;4982446;28;20189;-42
2023/12/08 01:52:59;;;;;;;167.40;63.67;;;;;;;;;;4983200;28;20677;-43
2023/12/08 01:55:26;;;;;;;171.90;61.78;;;;;;;;;;4984546;28;20245;-42
2023/12/08 01:57:52;;;;;;;135.35;51.70;;;;;;;;;;4984947;28;20209;-42
2023/12/08 02:00:18;;;;;;;173.70;62.30;;;;;;;;;;4975676;28;20236;-43
2023/12/08 02:02:44;;;;;;;172.95;62.38;;;;;;;;;;4984445;28;20201;-43
2023/12/08 02:05:10;;;;;;;137.10;53.57;;;;;;;;;;4979327;28;20194;-43
2023/12/08 02:07:36;;;;;;;169.05;64.60;;;;;;;;;;4980033;28;20472;-42
2023/12/08 02:10:02;;;;;;;134.80;53.03;;;;;;;;;;4983187;28;20193;-42
2023/12/08 02:12:29;;;;;;;138.25;54.75;;;;;;;;;;4985733;28;20510;-42
2023/12/08 02:14:54;;;;;;;127.38;53.10;;;;;;;;;;4982985;28;20181;-42
2023/12/08 02:17:23;;;;;;;125.60;49.87;;;;;;;;;;4977232;28;20568;-43
2023/12/08 02:19:50;;;;;;;170.65;64.20;;;;;;;;;;4960842;28;20426;-42
2023/12/08 02:22:22;;;;;;;140.23;53.33;;;;;;;;;;4962243;28;20550;-42
2023/12/08 02:24:48;;;;;;;174.77;62.63;;;;;;;;;;4969042;28;20182;-42
2023/12/08 02:27:14;;;;;;;172.17;63.17;;;;;;;;;;4955498;28;20177;-43
2023/12/08 02:29:40;;;;;;;129.70;52.27;;;;;;;;;;4973463;28;20421;-42
2023/12/08 02:32:12;;;;;;;171.60;64.28;;;;;;;;;;4957586;28;20935;-43
2023/12/08 02:34:38;;;;;;;177.20;62.05;;;;;;;;;;4967620;28;20261;-43
2023/12/08 02:37:07;;;;;;;173.02;63.50;;;;;;;;;;4964872;28;20178;-42
2023/12/08 02:39:34;;;;;;;132.35;55.22;;;;;;;;;;4959586;28;20186;-42
2023/12/08 02:42:01;;;;;;;168.75;62.17;;;;;;;;;;4972633;28;20170;-42
2023/12/08 02:44:27;;;;;;;132.05;52.30;;;;;;;;;;4954533;28;20631;-43
2023/12/08 02:46:53;;;;;;;168.97;62.10;;;;;;;;;;4971971;28;20272;-43
2023/12/08 02:49:19;;;;;;;168.23;60.50;;;;;;;;;;4960125;28;20961;-43
2023/12/08 02:51:45;;;;;;;169.67;62.10;;;;;;;;;;4963549;28;20226;-42
2023/12/08 02:54:11;;;;;;;170.70;61.93;;;;;;;;;;4968384;28;20437;-42
2023/12/08 02:56:37;;;;;;;136.63;54.22;;;;;;;;;;4969924;28;20408;-42
2023/12/08 02:59:03;;;;;;;133.97;52.40;;;;;;;;;;4973264;28;20194;-43
2023/12/08 03:04:32;;;;;;;172.40;62.75;;;;;;;;;;4955872;28;20425;-43
2023/12/08 03:06:58;;;;;;;172.77;65.00;;;;;;;;;;4967505;28;20182;-43
2023/12/08 03:09:24;;;;;;;131.07;51.50;;;;;;;;;;4963424;28;20444;-43
2023/12/08 03:11:50;;;;;;;172.20;63.43;;;;;;;;;;4959523;28;20572;-43
2023/12/08 03:14:16;;;;;;;172.55;61.97;;;;;;;;;;4971672;28;21102;-42
2023/12/08 03:16:45;;;;;;;168.47;62.70;;;;;;;;;;4954160;28;20167;-43
2023/12/08 03:19:11;;;;;;;137.52;51.92;;;;;;;;;;4970915;28;20471;-43
2023/12/08 03:21:37;;;;;;;176.17;63.00;;;;;;;;;;4959670;28;20194;-42
2023/12/08 03:24:03;;;;;;;180.03;63.33;;;;;;;;;;4963306;28;20409;-43
2023/12/08 03:26:29;;;;;;;171.02;61.17;;;;;;;;;;4967872;28;20414;-43
2023/12/08 03:28:55;;;;;;;168.17;61.30;;;;;;;;;;4954449;28;20194;-43
2023/12/08 03:31:23;;;;;;;167.87;60.93;;;;;;;;;;4972307;28;20507;-43
2023/12/08 03:33:48;;;;;;;169.27;60.53;;;;;;;;;;4955941;28;20497;-43
2023/12/08 03:36:14;;;;;;;167.87;60.53;;;;;;;;;;4964176;28;20618;-43
2023/12/08 03:38:40;;;;;;;171.70;62.00;;;;;;;;;;4988301;28;20812;-43
2023/12/08 03:41:06;;;;;;;171.37;61.53;;;;;;;;;;4979507;28;20216;-43
2023/12/08 03:43:32;;;;;;;169.60;61.77;;;;;;;;;;4980493;28;20462;-42
2023/12/08 03:45:58;;;;;;;171.33;61.90;;;;;;;;;;4973183;28;20420;-42
2023/12/08 03:48:24;;;;;;;167.80;60.10;;;;;;;;;;4980679;28;20409;-43
2023/12/08 03:50:50;;;;;;;172.40;62.60;;;;;;;;;;4970933;28;20529;-42
2023/12/08 03:53:16;;;;;;;170.63;60.20;;;;;;;;;;4987694;28;20412;-42
2023/12/08 03:55:42;;;;;;;171.70;61.43;;;;;;;;;;4980895;28;20409;-42
2023/12/08 03:58:08;;;;;;;169.77;59.27;;;;;;;;;;4982331;28;20437;-42
2023/12/08 04:00:34;;;;;;;171.13;59.87;;;;;;;;;;4984261;28;20435;-42
2023/12/08 04:03:00;;;;;;;170.47;58.73;;;;;;;;;;4982914;28;20506;-42
2023/12/08 04:05:26;;;;;;;172.48;60.53;;;;;;;;;;4980756;28;20479;-42
2023/12/08 04:07:52;;;;;;;169.87;58.40;;;;;;;;;;4985775;28;20180;-42
2023/12/08 04:10:18;;;;;;;171.17;60.80;;;;;;;;;;4978516;28;20436;-42
2023/12/08 04:12:43;;;;;;;169.47;60.40;;;;;;;;;;4978921;28;20508;-43
2023/12/08 04:15:10;;;;;;;168.17;60.27;;;;;;;;;;4980845;28;20405;-42
2023/12/08 04:17:36;;;;;;;167.30;58.80;;;;;;;;;;4981119;28;20407;-42
2023/12/08 04:20:01;;;;;;;169.03;60.90;;;;;;;;;;4981427;28;20202;-42
2023/12/08 04:22:27;;;;;;;167.53;59.17;;;;;;;;;;4984422;28;20409;-42
2023/12/08 04:24:53;;;;;;;167.27;60.10;;;;;;;;;;4983990;28;20416;-42
2023/12/08 04:27:19;;;;;;;167.35;61.00;;;;;;;;;;4978135;28;20908;-42
2023/12/08 04:29:45;;;;;;;168.43;62.43;;;;;;;;;;4976673;28;20190;-42
2023/12/08 04:32:11;;;;;;;160.57;59.60;;;;;;;;;;4982971;28;20440;-42
2023/12/08 04:34:37;;;;;;;160.80;60.67;;;;;;;;;;4983326;28;20504;-42
2023/12/08 04:37:04;;;;;;;161.90;59.27;;;;;;;;;;4981989;28;20684;-42
2023/12/08 04:39:30;;;;;;;163.63;59.83;;;;;;;;;;4981852;28;20464;-43
2023/12/08 04:41:56;;;;;;;164.60;59.15;;;;;;;;;;4982353;28;20282;-42
2023/12/08 04:44:22;;;;;;;165.65;59.28;;;;;;;;;;4979577;28;20675;-42
2023/12/08 04:46:48;;;;;;;168.17;61.17;;;;;;;;;;4990943;28;20243;-42
2023/12/08 04:49:14;;;;;;;167.10;57.22;;;;;;;;;;4984006;28;20434;-42
2023/12/08 04:51:43;;;;;;;169.23;58.73;;;;;;;;;;4984356;28;20216;-42
2023/12/08 04:54:09;;;;;;;171.35;60.42;;;;;;;;;;4986199;28;20515;-43
2023/12/08 04:56:35;;;;;;;168.60;57.25;;;;;;;;;;4983931;28;20174;-43
2023/12/08 04:59:01;;;;;;;171.30;58.90;;;;;;;;;;4984072;28;20196;-43
2023/12/08 05:01:27;;;;;;;171.70;59.30;;;;;;;;;;4983142;28;20460;-42
2023/12/08 05:03:53;;;;;;;168.20;57.77;;;;;;;;;;4988868;28;20416;-42
2023/12/08 05:06:22;;;;;;;168.48;59.40;;;;;;;;;;4982852;28;20416;-42
2023/12/08 05:08:48;;;;;;;170.23;58.83;;;;;;;;;;4981182;28;20749;-43
2023/12/08 05:11:14;;;;;;;170.37;58.07;;;;;;;;;;4983861;28;20271;-42
2023/12/08 05:13:40;;;;;;;172.13;60.20;;;;;;;;;;4983480;28;20405;-42
2023/12/08 05:16:06;;;;;;;168.67;56.30;;;;;;;;;;4984989;28;20189;-43
2023/12/08 05:18:32;;;;;;;173.07;61.55;;;;;;;;;;4984726;28;20412;-43
2023/12/08 05:20:58;;;;;;;171.03;56.80;;;;;;;;;;4984105;28;20174;-43
2023/12/08 05:23:24;;;;;;;171.67;57.60;;;;;;;;;;4984724;28;20508;-43
2023/12/08 05:25:49;;;;;;;171.57;56.73;;;;;;;;;;4983400;28;20447;-42
2023/12/08 05:28:16;;;;;;;172.40;56.60;;;;;;;;;;4983112;28;20413;-42
2023/12/08 05:30:42;;;;;;;173.75;56.92;;;;;;;;;;4986952;28;20448;-42
2023/12/08 05:33:08;;;;;;;174.63;56.28;;;;;;;;;;4981913;28;20205;-43
2023/12/08 05:35:34;;;;;;;175.60;58.13;;;;;;;;;;4982934;28;20197;-43
2023/12/08 05:38:00;;;;;;;176.32;56.50;;;;;;;;;;4983498;28;20174;-42
2023/12/08 05:40:26;;;;;;;176.87;58.90;;;;;;;;;;4982695;28;20243;-42
2023/12/08 05:42:52;;;;;;;177.15;56.67;;;;;;;;;;4982876;28;20556;-42
2023/12/08 05:45:18;;;;;;;179.45;58.92;;;;;;;;;;4988478;28;20648;-42
2023/12/08 05:47:44;;;;;;;179.57;58.50;;;;;;;;;;4986049;28;20181;-43
2023/12/08 05:50:10;;;;;;;177.07;57.13;;;;;;;;;;4979777;28;20515;-42
2023/12/08 05:52:37;;;;;;;177.18;55.05;;;;;;;;;;4981132;28;20332;-43
2023/12/08 05:55:03;;;;;;;180.13;55.90;;;;;;;;;;4972935;28;20238;-42
2023/12/08 05:57:29;;;;;;;176.57;54.55;;;;;;;;;;4955292;28;20188;-42
2023/12/08 05:59:55;;;;;;;181.95;58.47;;;;;;;;;;4971158;28;20220;-43
2023/12/08 06:02:21;;;;;;;176.82;54.63;;;;;;;;;;4974296;28;20240;-42
2023/12/08 06:04:47;;;;;;;180.25;55.45;;;;;;;;;;4966273;28;20174;-42
2023/12/08 06:07:13;;;;;;;179.60;55.33;;;;;;;;;;4959940;28;20257;-42
2023/12/08 06:09:39;;;;;;;175.70;53.50;;;;;;;;;;4973893;28;20217;-42
2023/12/08 06:12:05;;;;;;;175.90;53.57;;;;;;;;;;4955507;28;20285;-42
2023/12/08 06:14:31;;;;;;;178.23;54.78;;;;;;;;;;4955683;28;20428;-41
2023/12/08 06:16:57;;;;;;;178.37;54.77;;;;;;;;;;4966969;28;20178;-42
2023/12/08 06:19:23;;;;;;;178.27;56.10;;;;;;;;;;4966248;28;20465;-42
2023/12/08 06:21:49;;;;;;;179.47;54.37;;;;;;;;;;4958906;28;20420;-42
2023/12/08 06:24:16;;;;;;;177.97;53.23;;;;;;;;;;4974119;28;20412;-42
2023/12/08 06:26:42;;;;;;;177.48;54.22;;;;;;;;;;4954991;28;20410;-42
2023/12/08 06:29:08;;;;;;;177.57;54.00;;;;;;;;;;4969898;28;20763;-42
2023/12/08 06:31:34;;;;;;;179.75;55.28;;;;;;;;;;4962560;28;20454;-42
2023/12/08 06:34:00;;;;;;;178.70;53.03;;;;;;;;;;4962239;28;20246;-42
2023/12/08 06:36:26;;;;;;;180.50;54.83;;;;;;;;;;4970428;28;20186;-42
2023/12/08 06:38:52;;;;;;;178.18;53.63;;;;;;;;;;4954555;28;20225;-42
2023/12/08 06:41:18;;;;;;;179.47;54.30;;;;;;;;;;4973516;28;20221;-42
2023/12/08 06:43:44;;;;;;;179.98;53.55;;;;;;;;;;4959178;28;20429;-42
2023/12/08 06:46:10;;;;;;;177.60;52.57;;;;;;;;;;4965679;28;20182;-42
2023/12/08 06:48:36;;;;;;;179.23;53.60;;;;;;;;;;4966559;28;20422;-42
2023/12/08 06:51:03;;;;;;;180.67;54.87;;;;;;;;;;4957673;28;20503;-42
2023/12/08 06:53:29;;;;;;;176.95;52.17;;;;;;;;;;4973862;28;20409;-42
2023/12/08 06:55:55;;;;;;;175.60;51.37;;;;;;;;;;4965916;28;20550;-42
2023/12/08 06:58:21;;;;;;;181.60;56.67;;;;;;;;;;4972968;28;20421;-42
2023/12/08 07:00:47;;;;;;;178.50;53.77;;;;;;;;;;4962919;28;20464;-42
2023/12/08 07:03:13;;;;;;;179.65;53.83;;;;;;;;;;4978508;28;20571;-42
2023/12/08 07:05:39;;;;;;;179.50;54.15;;;;;;;;;;4981329;28;20173;-42
2023/12/08 07:08:05;;;;;;;180.83;56.17;;;;;;;;;;4981625;28;20192;-42
2023/12/08 07:10:31;;;;;;;178.10;54.63;;;;;;;;;;4984370;28;20560;-42
2023/12/08 07:12:57;;;;;;;179.30;54.00;;;;;;;;;;4978537;28;20826;-41
2023/12/08 07:15:24;;;;;;;181.63;55.60;;;;;;;;;;4981309;28;20413;-43
2023/12/08 07:17:50;;;;;;;181.50;55.00;;;;;;;;;;4981378;28;20752;-42
2023/12/08 07:20:18;;;;;;;181.97;55.50;;;;;;;;;;4984148;28;20185;-42
2023/12/08 07:22:44;;;;;;;179.85;53.63;;;;;;;;;;4983380;28;20440;-42
2023/12/08 07:25:12;;;;;;;176.80;52.37;;;;;;;;;;4985227;28;20220;-42
2023/12/08 07:27:38;;;;;;;177.13;53.13;;;;;;;;;;4981972;28;20475;-42
2023/12/08 07:30:04;;;;;;;179.63;53.70;;;;;;;;;;4977319;28;20205;-42
2023/12/08 07:32:31;;;;;;;182.25;55.28;;;;;;;;;;4984281;28;21025;-42
2023/12/08 07:34:56;;;;;;;183.63;54.20;;;;;;;;;;4982233;28;20185;-42
2023/12/08 07:37:22;;;;;;;181.07;53.50;;;;;;;;;;4984455;28;20169;-42
2023/12/08 07:39:49;;;;;;;183.27;55.43;;;;;;;;;;4981060;28;20433;-42
2023/12/08 07:42:15;;;;;;;181.77;53.55;;;;;;;;;;4983588;28;20417;-42
2023/12/08 07:44:41;;;;;;;178.98;50.75;;;;;;;;;;4980527;28;20259;-42
2023/12/08 07:47:07;;;;;;;181.60;52.30;;;;;;;;;;4982184;28;20189;-42
2023/12/08 07:49:33;;;;;;;182.37;53.20;;;;;;;;;;4983951;28;20196;-42
2023/12/08 07:51:59;;;;;;;178.07;49.93;;;;;;;;;;4980330;28;20463;-42
2023/12/08 07:54:31;;;;;;;181.95;50.20;;;;;;;;;;4982318;28;20400;-42
2023/12/08 07:56:57;;;;;;;180.82;51.55;;;;;;;;;;4981481;28;20172;-42
2023/12/08 07:59:23;;;;;;;180.07;50.47;;;;;;;;;;4980776;28;20193;-42
2023/12/08 08:01:50;;;;;;;145.93;46.53;;;;;;;;;;4980545;28;20428;-42
2023/12/08 08:04:16;;;;;;;123.32;44.97;;;;;;;;;;4986725;28;20586;-42
2023/12/08 08:06:42;;;;;;;131.07;45.20;;;;;;;;;;4983890;28;20173;-42
2023/12/08 08:09:08;;;;;;;143.97;45.47;;;;;;;;;;4978250;28;20798;-42
2023/12/08 08:11:34;;;;;;;144.40;48.00;;;;;;;;;;4979523;28;20894;-42
2023/12/08 08:14:00;;;;;;;153.27;49.00;;;;;;;;;;4981790;28;20467;-43
2023/12/08 08:16:26;;;;;;;155.77;49.30;;;;;;;;;;4984063;28;20653;-42
2023/12/08 08:18:52;;;;;;;116.80;39.27;;;;;;;;;;4983917;28;20174;-42
2023/12/08 08:21:18;;;;;;;165.07;50.57;;;;;;;;;;4988682;28;20429;-42
2023/12/08 08:23:44;;;;;;;167.87;48.97;;;;;;;;;;4986064;28;20436;-42
2023/12/08 08:26:10;;;;;;;173.13;51.23;;;;;;;;;;4980862;28;20444;-42
2023/12/08 08:28:36;;;;;;;173.63;53.00;;;;;;;;;;4987388;28;20442;-42
2023/12/08 08:31:02;;;;;;;173.63;50.70;;;;;;;;;;4985682;28;20420;-42
2023/12/08 08:33:28;;;;;;;173.63;50.72;;;;;;;;;;4987208;28;20240;-42
2023/12/08 08:35:54;;;;;;;177.60;52.67;;;;;;;;;;4984417;28;20170;-42
2023/12/08 08:38:20;;;;;;;181.93;54.57;;;;;;;;;;4974972;28;20919;-42
2023/12/08 08:40:46;;;;;;;184.63;53.40;;;;;;;;;;4983458;28;20995;-43
2023/12/08 08:43:12;;;;;;;188.05;56.40;;;;;;;;;;4984401;28;20423;-41
2023/12/08 08:45:38;;;;;;;185.17;53.87;;;;;;;;;;4988129;28;20552;-41
2023/12/08 08:48:04;;;;;;;194.53;60.57;;;;;;;;;;4983614;28;20452;-42
2023/12/08 08:50:30;;;;;;;186.63;54.05;;;;;;;;;;4984639;28;21011;-42
2023/12/08 08:52:56;;;;;;;184.87;52.50;;;;;;;;;;4984160;28;20285;-42
2023/12/08 08:55:22;;;;;;;184.07;52.20;;;;;;;;;;4985764;28;20918;-42
2023/12/08 08:57:49;;;;;;;182.67;53.43;;;;;;;;;;4987393;28;20919;-42
2023/12/08 09:00:18;;;;;;;179.48;53.78;;;;;;;;;;4989661;28;20960;-42
2023/12/08 09:02:45;;;;;;;169.05;50.58;;;;;;;;;;4986922;28;20189;-42
2023/12/08 09:05:11;;;;;;;159.60;50.95;;;;;;;;;;4981668;28;20215;-42
2023/12/08 09:07:37;;;;;;;164.25;50.83;;;;;;;;;;4982204;28;20693;-42
2023/12/08 09:10:06;;;;;;;162.43;50.83;;;;;;;;;;4986934;28;20703;-42
2023/12/08 09:12:32;;;;;;;143.25;47.20;;;;;;;;;;4983015;28;20205;-41
2023/12/08 09:14:58;;;;;;;159.43;50.53;;;;;;;;;;4979314;28;20582;-42
2023/12/08 09:17:24;;;;;;;159.53;49.17;;;;;;;;;;4986739;28;20169;-42
2023/12/08 09:19:50;;;;;;;160.67;50.90;;;;;;;;;;4983167;28;20470;-42
2023/12/08 09:22:16;;;;;;;164.60;51.40;;;;;;;;;;4974011;28;20521;-42
2023/12/08 09:24:41;;;;;;;161.00;51.17;;;;;;;;;;4974587;28;20413;-42
2023/12/08 09:27:07;;;;;;;162.00;51.80;;;;;;;;;;4960560;28;20414;-42
2023/12/08 09:29:33;;;;;;;173.40;62.63;;;;;;;;;;4962088;28;20483;-42
2023/12/08 09:31:59;;;;;;;154.97;48.77;;;;;;;;;;4981934;28;20464;-42
2023/12/08 09:34:25;;;;;;;147.70;48.73;;;;;;;;;;4986797;28;20424;-41
2023/12/08 09:36:51;;;;;;;160.17;51.17;;;;;;;;;;4986279;28;20416;-42
2023/12/08 09:39:19;;;;;;;159.20;49.75;;;;;;;;;;4971993;28;20478;-42
2023/12/08 09:41:46;;;;;;;153.13;49.60;;;;;;;;;;4985731;28;20275;-42
2023/12/08 09:44:14;;;;;;;150.88;49.55;;;;;;;;;;4985558;28;20752;-42
2023/12/08 09:46:43;;;;;;;152.15;48.55;;;;;;;;;;4985712;28;20611;-42
2023/12/08 09:49:12;;;;;;;151.35;50.05;;;;;;;;;;4984314;28;20193;-42
2023/12/08 09:51:39;;;;;;;142.88;49.63;;;;;;;;;;4970261;28;20244;-42
2023/12/08 09:54:05;;;;;;;143.75;47.20;;;;;;;;;;4955969;28;20217;-42
2023/12/08 09:56:31;;;;;;;122.03;44.72;;;;;;;;;;4974683;28;20170;-42
2023/12/08 09:58:57;;;;;;;120.65;43.80;;;;;;;;;;4958518;28;20194;-42
2023/12/08 10:01:23;;;;;;;125.47;44.28;;;;;;;;;;4967217;28;20194;-42
2023/12/08 10:03:50;;;;;;;116.00;43.27;;;;;;;;;;4966695;28;20186;-42
2023/12/08 10:06:16;;;;;;;100.32;43.17;;;;;;;;;;4959526;28;20504;-42
2023/12/08 10:08:41;;;;;;;90.80;42.47;;;;;;;;;;4974188;28;20664;-42
2023/12/08 10:11:07;;;;;;;90.13;40.93;;;;;;;;;;4955423;28;20418;-42
2023/12/08 10:13:34;;;;;;;99.85;42.53;;;;;;;;;;4973755;28;20428;-42
2023/12/08 10:16:00;;;;;;;94.15;41.92;;;;;;;;;;4984632;28;20177;-42
2023/12/08 10:18:27;;;;;;;88.47;42.58;;;;;;;;;;4979713;28;20165;-42
2023/12/08 10:20:53;;;;;;;84.40;41.75;;;;;;;;;;4982249;28;20248;-42
2023/12/08 10:23:20;;;;;;;77.50;39.85;;;;;;;;;;4982033;28;20181;-42
2023/12/08 10:25:47;;;;;;;66.65;42.15;;;;;;;;;;4982245;28;20213;-42
2023/12/08 10:28:13;;;;;;;181.05;50.85;;;;;;;;;;4984978;28;20252;-42
2023/12/08 10:30:44;;;;;;;182.45;54.83;;;;;;;;;;4984195;28;20210;-42
2023/12/08 10:33:18;;;;;;;184.75;57.35;;;;;;;;;;4986006;28;20569;-42
2023/12/08 10:35:44;;;;;;;182.70;55.35;;;;;;;;;;4983098;28;20204;-42
2023/12/08 10:38:10;;;;;;;184.17;57.07;;;;;;;;;;4977595;28;20209;-42
2023/12/08 10:40:36;;;;;;;181.07;53.00;;;;;;;;;;4984132;28;20428;-42
2023/12/08 10:43:02;;;;;;;190.30;58.17;;;;;;;;;;4988721;28;20769;-42
2023/12/08 10:45:28;;;;;;;180.50;52.10;;;;;;;;;;4973795;28;20520;-42
2023/12/08 10:47:55;;;;;;;181.82;53.42;;;;;;;;;;4955447;28;20427;-42
2023/12/08 10:50:21;;;;;;;181.73;53.80;;;;;;;;;;4968207;28;20225;-42
2023/12/08 10:52:47;;;;;;;181.23;51.75;;;;;;;;;;4963740;28;20206;-42
2023/12/08 10:55:13;;;;;;;182.43;53.70;;;;;;;;;;4960535;28;20182;-42
2023/12/08 10:57:39;;;;;;;185.93;54.17;;;;;;;;;;4971176;28;20182;-42
2023/12/08 11:00:17;;;;;;;181.57;49.63;;;;;;;;;;4953972;28;20197;-42
2023/12/08 11:02:43;;;;;;;183.85;51.13;;;;;;;;;;4973332;28;20185;-42
2023/12/08 11:05:11;;;;;;;181.63;49.58;;;;;;;;;;4958171;28;20209;-42
2023/12/08 11:07:39;;;;;;;182.20;50.95;;;;;;;;;;4965654;28;20678;-41
2023/12/08 11:10:06;;;;;;;181.98;50.53;;;;;;;;;;4965222;28;20198;-42
2023/12/08 11:12:36;;;;;;;181.25;50.13;;;;;;;;;;4954435;28;20202;-42
2023/12/08 11:15:05;;;;;;;182.05;51.13;;;;;;;;;;4954528;28;20166;-42
2023/12/08 11:17:31;;;;;;;182.52;51.10;;;;;;;;;;4973752;28;20669;-42
2023/12/08 11:19:59;;;;;;;181.13;50.37;;;;;;;;;;4956522;28;20201;-42
2023/12/08 11:22:25;;;;;;;181.85;49.45;;;;;;;;;;4966592;28;20417;-42
2023/12/08 11:24:51;;;;;;;181.50;49.42;;;;;;;;;;4964697;28;20583;-42
2023/12/08 11:27:29;;;;;;;183.63;51.97;;;;;;;;;;4954629;28;20224;-42
2023/12/08 11:30:05;;;;;;;186.15;52.15;;;;;;;;;;4955749;28;20448;-42
2023/12/08 11:32:40;;;;;;;183.80;50.80;;;;;;;;;;4973244;28;20205;-42
2023/12/08 11:35:09;;;;;;;181.73;51.15;;;;;;;;;;4953741;28;20178;-42
2023/12/08 11:37:35;;;;;;;187.10;52.20;;;;;;;;;;4970331;28;20174;-42
2023/12/08 11:40:05;;;;;;;119.80;45.40;;;;;;;;;;4960141;28;20205;-42
2023/12/08 11:42:35;;;;;;;152.45;47.65;;;;;;;;;;4962912;28;20928;-42
2023/12/08 11:45:01;;;;;;;96.50;42.50;;;;;;;;;;4967309;28;20233;-42
2023/12/08 11:47:27;;;;;;;108.57;44.73;;;;;;;;;;4955342;28;20182;-42
2023/12/08 11:49:54;;;;;;;131.60;46.60;;;;;;;;;;4972633;28;20428;-42
2023/12/08 11:52:31;;;;;;;132.48;46.30;;;;;;;;;;4956360;28;20474;-42
2023/12/08 11:55:12;;;;;;;142.88;45.22;;;;;;;;;;4972190;28;20181;-42
2023/12/08 11:57:43;;;;;;;137.18;44.80;;;;;;;;;;4976431;28;20676;-42
2023/12/08 12:00:10;;;;;;;53.65;36.22;;;;;;;;;;4967056;28;20198;-42
2023/12/08 12:02:43;;;;;;;34.63;32.05;;;;;;;;;;4963199;28;20545;-43
2023/12/08 12:05:10;;;;;;;25.40;23.90;;;;;;;;;;4974309;28;20200;-42
2023/12/08 12:07:37;;;;;;;42.08;37.75;;;;;;;;;;4959485;28;20181;-42
2023/12/08 12:10:03;;;;;;;41.00;37.88;;;;;;;;;;4967846;28;20576;-43
2023/12/08 12:12:30;;;;;;;40.90;37.05;;;;;;;;;;4976053;28;20707;-42
2023/12/08 12:14:57;;;;;;;42.40;37.90;;;;;;;;;;4965938;28;20178;-42
2023/12/08 12:17:24;;;;;;;31.88;28.42;;;;;;;;;;4962756;28;20174;-43
2023/12/08 12:19:53;;;;;;;44.22;39.95;;;;;;;;;;4972006;28;20560;-42
2023/12/08 12:22:19;;;;;;;41.33;35.78;;;;;;;;;;4956945;28;20170;-42
2023/12/08 12:24:46;;;;;;;40.75;36.40;;;;;;;;;;4975572;28;20182;-42
2023/12/08 12:27:12;;;;;;;42.85;36.45;;;;;;;;;;4961858;28;20622;-42
2023/12/08 12:29:38;;;;;;;36.67;32.78;;;;;;;;;;4968868;28;20728;-42
2023/12/08 12:32:07;;;;;;;40.13;36.13;;;;;;;;;;4975897;28;20237;-42
2023/12/08 12:34:33;;;;;;;43.30;38.70;;;;;;;;;;4971447;28;20420;-42
2023/12/08 12:36:59;;;;;;;39.03;33.97;;;;;;;;;;4956905;28;20167;-42
2023/12/08 12:39:25;;;;;;;21.45;15.60;;;;;;;;;;4973845;28;20473;-42
2023/12/08 12:41:56;;;;;;;12.50;11.20;;;;;;;;;;4960139;28;20192;-42
2023/12/08 12:44:22;;;;;;;39.33;33.58;;;;;;;;;;4968005;28;20413;-42
2023/12/08 12:46:48;;;;;;;21.97;17.47;;;;;;;;;;4968750;28;20587;-43
2023/12/08 12:49:17;;;;;;;39.17;31.43;;;;;;;;;;4959535;28;20806;-42
2023/12/08 12:51:43;;;;;;;17.52;15.93;;;;;;;;;;4975981;28;20440;-43
2023/12/08 12:54:09;;;;;;;34.17;28.65;;;;;;;;;;4957039;28;20176;-42
2023/12/08 12:56:37;;;;;;;42.20;37.65;;;;;;;;;;4972077;28;20683;-42
2023/12/08 12:59:07;;;;;;;30.50;25.25;;;;;;;;;;4964254;28;20205;-42
2023/12/08 13:01:33;;;;;;;35.03;31.50;;;;;;;;;;4964060;28;20311;-42
2023/12/08 13:03:59;;;;;;;22.63;20.48;;;;;;;;;;4973898;28;20210;-42
2023/12/08 13:06:27;;;;;;;36.45;33.45;;;;;;;;;;4975572;28;20201;-42
2023/12/08 13:08:53;;;;;;;37.60;34.10;;;;;;;;;;4955882;28;20182;-42
2023/12/08 13:11:19;;;;;;;34.03;30.83;;;;;;;;;;4971664;28;20261;-42
2023/12/08 13:13:45;;;;;;;22.50;20.70;;;;;;;;;;4964123;28;20420;-42
2023/12/08 13:16:11;;;;;;;22.20;20.40;;;;;;;;;;4963709;28;20837;-42
2023/12/08 13:18:44;;;;;;;17.97;16.33;;;;;;;;;;4971718;28;20450;-42
2023/12/08 13:21:10;;;;;;;40.85;35.25;;;;;;;;;;4956428;28;20408;-42
2023/12/08 13:23:36;;;;;;;41.30;36.90;;;;;;;;;;4975767;28;20219;-42
2023/12/08 13:26:02;;;;;;;40.83;36.73;;;;;;;;;;4959452;28;20462;-42
2023/12/08 13:28:28;;;;;;;44.40;39.63;;;;;;;;;;4963963;28;20836;-42
2023/12/08 13:30:54;;;;;;;37.33;32.40;;;;;;;;;;4971408;28;20595;-42
2023/12/08 13:33:21;;;;;;;10.03;8.83;;;;;;;;;;4974966;28;20462;-42
2023/12/08 13:35:47;;;;;;;10.63;9.50;;;;;;;;;;4975105;28;20900;-42
2023/12/08 13:38:13;;;;;;;19.57;17.97;;;;;;;;;;4975112;28;20181;-42
2023/12/08 13:40:39;;;;;;;12.30;11.00;;;;;;;;;;4959286;28;20770;-42
2023/12/08 13:43:05;;;;;;;13.80;12.60;;;;;;;;;;4967315;28;20311;-42
2023/12/08 13:45:32;;;;;;;10.50;8.60;;;;;;;;;;4967581;28;20489;-42
2023/12/08 13:47:58;;;;;;;30.52;23.92;;;;;;;;;;4959075;28;20413;-42
2023/12/08 13:50:24;;;;;;;19.10;17.20;;;;;;;;;;4974674;28;20200;-42
2023/12/08 13:52:50;;;;;;;36.90;30.00;;;;;;;;;;4956062;28;20316;-42
2023/12/08 13:55:16;;;;;;;42.27;37.50;;;;;;;;;;4970799;28;20215;-43
2023/12/08 13:57:42;;;;;;;43.97;36.13;;;;;;;;;;4974636;28;20419;-43
2023/12/08 14:00:08;;;;;;;133.40;37.80;;;;;;;;;;4967392;28;20438;-43
2023/12/08 14:02:34;;;;;;;193.48;51.10;;;;;;;;;;4958657;28;20431;-42
2023/12/08 14:05:00;;;;;;;197.50;54.07;;;;;;;;;;4974910;28;20267;-42